Time;durP1;ratioP1;P1;durP2;ratioP2;P2;SDS_P1;SDS_P2;PMS_P1;PMS_P2;Temp;Humidity;BMP_temperature;BMP_pressure;BME280_temperature;BME280_humidity;BME280_pressure;Samples;Min_cycle;Max_cycle;Signal;HPM_P1;HPM_P2
2021/12/26 00:01:12;;;;;;;4.38;3.92;;;11.00;81.30;;;;;;5044976;28;20032;-71
2021/12/26 00:03:40;;;;;;;3.80;3.47;;;11.10;81.50;;;;;;5032309;28;20116;-71
2021/12/26 00:06:14;;;;;;;4.45;4.05;;;11.00;81.30;;;;;;5045308;28;20070;-72
2021/12/26 00:08:42;;;;;;;3.97;3.63;;;11.10;81.50;;;;;;5044647;28;20110;-73
2021/12/26 00:11:09;;;;;;;3.95;3.65;;;11.00;81.30;;;;;;5044393;28;20602;-73
2021/12/26 00:13:37;;;;;;;4.13;3.80;;;11.00;81.30;;;;;;5048643;28;20506;-73
2021/12/26 00:16:04;;;;;;;3.92;3.63;;;11.00;81.30;;;;;;5048459;28;20032;-74
2021/12/26 00:18:31;;;;;;;4.25;3.88;;;11.00;81.30;;;;;;5049138;28;20036;-73
2021/12/26 00:20:57;;;;;;;4.15;3.83;;;11.00;81.30;;;;;;5031052;28;20616;-73
2021/12/26 00:23:23;;;;;;;4.53;4.13;;;11.00;81.30;;;;;;5049320;28;20032;-73
2021/12/26 00:25:49;;;;;;;4.53;3.85;;;11.00;81.30;;;;;;5049259;28;20044;-73
2021/12/26 00:28:16;;;;;;;4.30;3.90;;;11.00;81.40;;;;;;5049253;28;20033;-72
2021/12/26 00:30:43;;;;;;;3.97;3.67;;;11.00;81.40;;;;;;5030308;28;20423;-72
2021/12/26 00:33:09;;;;;;;4.07;3.67;;;11.00;81.40;;;;;;5035449;28;20375;-73
2021/12/26 00:35:35;;;;;;;4.97;4.32;;;11.00;81.40;;;;;;5068267;28;20535;-72
2021/12/26 00:38:02;;;;;;;4.32;3.75;;;11.00;81.30;;;;;;5068374;28;20072;-72
2021/12/26 00:40:28;;;;;;;4.57;4.18;;;11.00;81.30;;;;;;5067937;28;20039;-72
2021/12/26 00:42:56;;;;;;;4.70;4.30;;;11.00;81.30;;;;;;5067165;28;20036;-72
2021/12/26 00:45:23;;;;;;;4.07;3.70;;;11.10;81.50;;;;;;5067912;28;20032;-72
2021/12/26 00:47:49;;;;;;;4.20;3.80;;;11.10;81.50;;;;;;5068559;28;20052;-72
2021/12/26 00:50:21;;;;;;;4.40;4.03;;;11.00;81.20;;;;;;5050386;28;20047;-72
2021/12/26 00:52:47;;;;;;;5.45;4.93;;;11.10;81.40;;;;;;5049389;28;20115;-72
2021/12/26 00:55:14;;;;;;;4.75;4.32;;;11.00;81.20;;;;;;5067144;28;20110;-72
2021/12/26 00:57:41;;;;;;;4.90;4.40;;;11.00;81.20;;;;;;5066396;28;20036;-72
2021/12/26 01:00:12;;;;;;;5.07;4.63;;;11.00;81.20;;;;;;5050084;28;21026;-72
2021/12/26 01:02:38;;;;;;;4.88;4.47;;;11.00;81.20;;;;;;5067867;28;20043;-72
2021/12/26 01:05:06;;;;;;;4.78;4.25;;;11.00;81.20;;;;;;5068116;28;20036;-72
2021/12/26 01:07:45;;;;;;;4.32;3.92;;;11.10;81.40;;;;;;5050104;28;20107;-72
2021/12/26 01:10:14;;;;;;;5.13;4.63;;;11.00;81.20;;;;;;5049253;28;20039;-72
2021/12/26 01:12:41;;;;;;;5.07;4.57;;;11.00;81.20;;;;;;5049685;28;20025;-72
2021/12/26 01:15:09;;;;;;;4.90;4.50;;;11.00;81.20;;;;;;5049057;28;20029;-72
2021/12/26 01:17:58;;;;;;;4.80;4.40;;;11.00;81.20;;;;;;5065598;28;20388;-71
2021/12/26 01:21:16;;;;;;;5.13;4.72;;;11.00;81.20;;;;;;5066184;28;20028;-71
2021/12/26 01:23:27;;;;;;;4.65;4.25;;;11.00;81.20;;;;;;5046351;28;20040;-71
2021/12/26 01:25:54;;;;;;;4.85;4.38;;;11.00;81.20;;;;;;5049223;28;20059;-71
2021/12/26 01:28:28;;;;;;;5.07;4.57;;;11.00;81.20;;;;;;5049811;28;20043;-72
2021/12/26 01:30:57;;;;;;;4.97;4.55;;;11.00;81.20;;;;;;5049521;28;20519;-73
2021/12/26 01:33:24;;;;;;;4.75;4.35;;;11.00;81.20;;;;;;5066290;28;20037;-73
2021/12/26 01:36:07;;;;;;;5.07;4.60;;;11.00;81.20;;;;;;5049192;28;20036;-73
2021/12/26 01:38:42;;;;;;;5.60;5.10;;;11.00;81.20;;;;;;5050599;28;20060;-72
2021/12/26 01:41:32;;;;;;;5.43;4.93;;;11.00;81.20;;;;;;5056257;28;20044;-73
2021/12/26 01:44:18;;;;;;;4.72;4.28;;;11.00;81.10;;;;;;5053502;28;20381;-72
2021/12/26 01:46:47;;;;;;;4.97;4.57;;;11.00;81.10;;;;;;5029818;28;20132;-72
2021/12/26 01:49:17;;;;;;;4.53;4.13;;;11.00;81.10;;;;;;5034679;28;20025;-73
2021/12/26 01:51:46;;;;;;;5.25;4.55;;;11.00;81.10;;;;;;5046123;28;20031;-72
2021/12/26 01:54:16;;;;;;;4.93;4.53;;;11.00;81.10;;;;;;5045634;28;20066;-73
2021/12/26 01:56:43;;;;;;;4.97;4.40;;;11.00;81.10;;;;;;5046871;28;20028;-73
2021/12/26 01:59:11;;;;;;;5.13;4.68;;;11.00;81.20;;;;;;5046608;28;20074;-72
2021/12/26 02:01:49;;;;;;;4.90;4.45;;;11.00;81.20;;;;;;5044381;28;20045;-73
2021/12/26 02:04:15;;;;;;;4.70;4.30;;;11.00;81.20;;;;;;5029313;28;20029;-73
2021/12/26 02:06:41;;;;;;;4.38;4.07;;;10.90;81.00;;;;;;5029101;28;20033;-73
2021/12/26 02:09:07;;;;;;;5.47;4.80;;;10.90;81.10;;;;;;5046301;28;20025;-72
2021/12/26 02:11:35;;;;;;;5.20;4.80;;;10.90;81.10;;;;;;5028692;28;20025;-72
2021/12/26 02:14:02;;;;;;;5.07;4.68;;;10.90;81.10;;;;;;5036300;28;20484;-72
2021/12/26 02:16:40;;;;;;;5.70;5.20;;;10.90;81.20;;;;;;5045591;28;20041;-72
2021/12/26 02:19:06;;;;;;;5.60;5.05;;;10.90;81.10;;;;;;5045119;28;20032;-72
2021/12/26 02:22:01;;;;;;;5.57;5.07;;;10.80;81.00;;;;;;5045632;28;20526;-72
2021/12/26 02:24:57;;;;;;;5.47;4.97;;;10.80;81.00;;;;;;5044687;28;20508;-72
2021/12/26 02:27:43;;;;;;;;;;;10.80;81.10;;;;;;5045261;28;20128;-72
2021/12/26 02:30:18;;;;;;;7.00;4.95;;;10.80;81.00;;;;;;5044973;28;19908;-72
2021/12/26 02:32:51;;;;;;;6.40;4.97;;;10.80;81.00;;;;;;5041323;28;20052;-72
2021/12/26 02:35:20;;;;;;;5.25;4.75;;;10.80;81.00;;;;;;5057897;28;20029;-72
2021/12/26 02:37:47;;;;;;;5.00;4.60;;;10.80;81.00;;;;;;5065990;28;20571;-72
2021/12/26 02:40:14;;;;;;;5.55;5.05;;;10.80;81.00;;;;;;5053854;28;20083;-71
2021/12/26 02:42:40;;;;;;;5.32;4.82;;;10.80;81.10;;;;;;5047504;28;20033;-72
2021/12/26 02:45:06;;;;;;;5.22;4.72;;;10.90;81.20;;;;;;5046424;28;20037;-73
2021/12/26 02:47:42;;;;;;;5.05;4.55;;;10.90;81.20;;;;;;5028214;28;20045;-72
2021/12/26 02:50:15;;;;;;;5.28;4.78;;;10.80;81.00;;;;;;5046649;28;20036;-72
2021/12/26 02:52:42;;;;;;;5.80;5.30;;;10.90;81.20;;;;;;5045913;28;20033;-72
2021/12/26 02:55:10;;;;;;;4.80;4.43;;;10.90;81.20;;;;;;5046503;28;20477;-72
2021/12/26 02:57:37;;;;;;;5.07;4.68;;;10.90;81.20;;;;;;5046227;28;20068;-72
2021/12/26 03:00:11;;;;;;;6.30;5.25;;;10.80;81.00;;;;;;5046427;28;20041;-72
2021/12/26 03:02:45;;;;;;;5.85;5.25;;;10.80;81.00;;;;;;5046683;28;20064;-72
2021/12/26 03:05:13;;;;;;;5.43;4.93;;;10.80;81.00;;;;;;5046226;28;20025;-72
2021/12/26 03:07:39;;;;;;;5.65;5.15;;;10.80;81.10;;;;;;5046404;28;20033;-72
2021/12/26 03:10:10;;;;;;;5.45;5.00;;;10.80;81.10;;;;;;5029710;28;20044;-72
2021/12/26 03:12:41;;;;;;;5.70;5.20;;;10.80;81.10;;;;;;5046500;28;20477;-72
2021/12/26 03:15:10;;;;;;;5.68;5.10;;;10.80;81.10;;;;;;5030037;28;20025;-73
2021/12/26 03:17:37;;;;;;;6.38;5.78;;;10.80;81.10;;;;;;5029585;28;20072;-72
2021/12/26 03:20:10;;;;;;;5.80;5.28;;;10.80;81.10;;;;;;5030356;28;20120;-72
2021/12/26 03:22:37;;;;;;;5.70;5.20;;;10.80;81.20;;;;;;5030829;28;20098;-72
2021/12/26 03:25:10;;;;;;;6.25;5.65;;;10.80;81.20;;;;;;5030572;28;20026;-72
2021/12/26 03:27:36;;;;;;;5.88;5.38;;;10.80;81.20;;;;;;5046407;28;20037;-72
2021/12/26 03:30:05;;;;;;;5.63;5.07;;;10.80;81.20;;;;;;5045633;28;20072;-72
2021/12/26 03:32:33;;;;;;;5.88;5.38;;;10.80;81.20;;;;;;5046766;28;20022;-72
2021/12/26 03:34:59;;;;;;;6.57;5.93;;;10.90;81.30;;;;;;5030720;28;20400;-72
2021/12/26 03:37:25;;;;;;;7.10;6.45;;;10.80;81.20;;;;;;5045753;28;20045;-72
2021/12/26 03:39:52;;;;;;;5.78;5.28;;;10.80;81.20;;;;;;5029098;28;20032;-72
2021/12/26 03:42:21;;;;;;;6.30;5.65;;;10.80;81.20;;;;;;5045884;28;20048;-72
2021/12/26 03:44:49;;;;;;;6.00;5.50;;;10.90;81.30;;;;;;5028870;28;20061;-72
2021/12/26 03:47:15;;;;;;;6.40;5.85;;;10.90;81.30;;;;;;5047550;28;20095;-71
2021/12/26 03:49:42;;;;;;;6.20;5.60;;;10.90;81.30;;;;;;5049978;28;20459;-72
2021/12/26 03:52:08;;;;;;;5.97;5.47;;;10.90;81.30;;;;;;5034437;28;20037;-72
2021/12/26 03:54:34;;;;;;;6.47;5.88;;;10.90;81.30;;;;;;5032970;28;20568;-72
2021/12/26 03:57:00;;;;;;;5.93;5.45;;;10.90;81.20;;;;;;5049658;28;20521;-72
2021/12/26 03:59:27;;;;;;;6.28;5.78;;;10.90;81.20;;;;;;5032931;28;20056;-72
2021/12/26 04:01:58;;;;;;;6.15;5.55;;;10.90;81.20;;;;;;5049616;28;20415;-72
2021/12/26 04:04:24;;;;;;;6.30;5.70;;;10.90;81.20;;;;;;5032937;28;20121;-72
2021/12/26 04:06:51;;;;;;;6.20;5.60;;;10.90;81.20;;;;;;5049899;28;20032;-72
2021/12/26 04:09:18;;;;;;;6.93;5.28;;;10.90;81.20;;;;;;5034358;28;20112;-72
2021/12/26 04:11:45;;;;;;;5.80;5.30;;;10.90;81.20;;;;;;5034320;28;20030;-72
2021/12/26 04:14:16;;;;;;;6.90;6.30;;;11.00;81.40;;;;;;5049006;28;20037;-72
2021/12/26 04:16:43;;;;;;;5.88;5.38;;;10.90;81.20;;;;;;5048978;28;20045;-72
2021/12/26 04:19:09;;;;;;;6.72;6.13;;;10.90;81.20;;;;;;5049603;28;20079;-72
2021/12/26 04:21:36;;;;;;;6.20;5.70;;;11.00;81.40;;;;;;5049234;28;20420;-72
2021/12/26 04:24:03;;;;;;;6.38;5.82;;;10.90;81.20;;;;;;5049055;28;20544;-72
2021/12/26 04:26:30;;;;;;;6.80;6.20;;;10.90;81.20;;;;;;5049326;28;20049;-72
2021/12/26 04:28:56;;;;;;;5.97;5.47;;;10.90;81.20;;;;;;5032199;28;20045;-72
2021/12/26 04:31:22;;;;;;;7.07;6.38;;;11.00;81.40;;;;;;5033935;28;20040;-72
2021/12/26 04:33:48;;;;;;;6.22;5.63;;;10.90;81.20;;;;;;5032109;28;20111;-72
2021/12/26 04:36:15;;;;;;;6.63;5.97;;;10.90;81.20;;;;;;5048964;28;20083;-72
2021/12/26 04:38:43;;;;;;;7.28;6.65;;;10.90;81.20;;;;;;5032384;28;20064;-72
2021/12/26 04:41:10;;;;;;;6.25;5.68;;;10.90;81.20;;;;;;5049413;28;20408;-72
2021/12/26 04:44:12;;;;;;;6.47;5.73;;;10.90;81.30;;;;;;5033238;28;20029;-72
2021/12/26 04:46:58;;;;;;;6.63;6.03;;;10.90;81.20;;;;;;5039951;28;20305;-72
2021/12/26 04:49:28;;;;;;;6.28;5.65;;;10.90;81.20;;;;;;5035351;28;20024;-72
2021/12/26 04:51:55;;;;;;;6.53;5.93;;;10.90;81.20;;;;;;5035365;28;20036;-72
2021/12/26 04:54:22;;;;;;;6.75;6.15;;;10.90;81.20;;;;;;5035579;28;20396;-72
2021/12/26 04:56:49;;;;;;;6.80;6.13;;;10.90;81.20;;;;;;5051836;28;20120;-72
2021/12/26 04:59:15;;;;;;;7.13;6.50;;;10.90;81.20;;;;;;5034232;28;20028;-72
2021/12/26 05:01:41;;;;;;;6.32;5.82;;;10.90;81.20;;;;;;5035450;28;20067;-72
2021/12/26 05:04:07;;;;;;;7.10;6.43;;;10.90;81.30;;;;;;5053131;28;20044;-72
2021/12/26 05:06:33;;;;;;;6.55;6.05;;;10.90;81.20;;;;;;5052972;28;20492;-72
2021/12/26 05:09:02;;;;;;;6.43;5.82;;;10.90;81.20;;;;;;5053005;28;20025;-72
2021/12/26 05:11:29;;;;;;;7.18;6.45;;;10.90;81.70;;;;;;5034729;28;20029;-72
2021/12/26 05:13:56;;;;;;;6.80;6.20;;;10.90;81.20;;;;;;5052521;28;20065;-72
2021/12/26 05:16:23;;;;;;;7.32;6.63;;;10.90;81.20;;;;;;5052461;28;20117;-72
2021/12/26 05:18:49;;;;;;;7.03;6.43;;;10.80;81.10;;;;;;5034935;28;20037;-71
2021/12/26 05:21:15;;;;;;;6.93;6.00;;;10.80;81.10;;;;;;5051730;28;20126;-72
2021/12/26 05:23:41;;;;;;;6.47;5.88;;;10.70;81.00;;;;;;5051417;28;20060;-72
2021/12/26 05:26:07;;;;;;;6.95;6.32;;;10.70;81.00;;;;;;5034909;28;20112;-72
2021/12/26 05:28:35;;;;;;;6.20;5.70;;;10.70;81.10;;;;;;5034589;28;20116;-72
2021/12/26 05:31:03;;;;;;;7.10;6.40;;;10.60;81.00;;;;;;5051103;28;20053;-72
2021/12/26 05:33:35;;;;;;;6.43;5.93;;;10.60;81.00;;;;;;5034600;28;20111;-72
2021/12/26 05:36:02;;;;;;;6.70;6.10;;;10.50;80.90;;;;;;5051078;28;20445;-72
2021/12/26 05:38:33;;;;;;;6.72;6.07;;;10.50;80.90;;;;;;5034802;28;20427;-72
2021/12/26 05:40:59;;;;;;;6.85;6.25;;;10.50;81.00;;;;;;5052214;28;20052;-72
2021/12/26 05:43:26;;;;;;;6.65;6.05;;;10.50;81.00;;;;;;5034697;28;20083;-72
2021/12/26 05:45:55;;;;;;;7.43;6.55;;;10.40;80.80;;;;;;5033854;28;20032;-71
2021/12/26 05:48:22;;;;;;;6.97;6.25;;;10.40;80.90;;;;;;5057477;28;20084;-72
2021/12/26 05:50:50;;;;;;;7.63;6.93;;;10.40;81.40;;;;;;5068541;28;20388;-71
2021/12/26 05:53:34;;;;;;;6.85;6.25;;;10.40;81.00;;;;;;5068984;28;20407;-72
2021/12/26 05:56:01;;;;;;;6.78;6.18;;;10.30;80.80;;;;;;5067361;28;20368;-71
2021/12/26 05:58:28;;;;;;;7.03;6.35;;;10.30;80.80;;;;;;5066450;28;20033;-72
2021/12/26 06:00:55;;;;;;;7.28;6.55;;;10.30;80.80;;;;;;5050582;28;20117;-71
2021/12/26 06:03:21;;;;;;;6.32;5.72;;;10.30;80.90;;;;;;5064970;28;20029;-72
2021/12/26 06:05:47;;;;;;;6.90;6.30;;;10.30;80.90;;;;;;5066891;28;20395;-71
2021/12/26 06:08:14;;;;;;;7.28;6.57;;;10.20;80.70;;;;;;5048556;28;20056;-72
2021/12/26 06:10:41;;;;;;;6.22;5.63;;;10.20;80.70;;;;;;5048571;28;20114;-72
2021/12/26 06:13:07;;;;;;;6.82;6.13;;;10.30;81.00;;;;;;5048930;28;20056;-72
2021/12/26 06:15:34;;;;;;;6.80;6.10;;;10.20;80.80;;;;;;5048578;28;20040;-71
2021/12/26 06:18:00;;;;;;;6.57;5.88;;;10.20;80.80;;;;;;5050301;28;20051;-72
2021/12/26 06:21:04;;;;;;;6.82;6.18;;;10.20;80.80;;;;;;4976651;28;20035;-71
2021/12/26 06:23:51;;;;;;;6.85;6.00;;;10.10;80.60;;;;;;4949424;28;20047;-72
2021/12/26 06:26:36;;;;;;;7.07;6.38;;;10.20;80.80;;;;;;5025520;28;20113;-71
2021/12/26 06:29:12;;;;;;;6.70;6.10;;;10.10;80.60;;;;;;5060341;28;20096;-72
2021/12/26 06:31:41;;;;;;;6.90;6.20;;;10.10;80.60;;;;;;5067145;28;20028;-71
2021/12/26 06:34:27;;;;;;;5.95;5.40;;;10.10;80.70;;;;;;5066110;28;20051;-72
2021/12/26 06:37:11;;;;;;;5.93;5.32;;;10.10;80.70;;;;;;5066833;28;20048;-72
2021/12/26 06:39:59;;;;;;;6.20;5.70;;;10.10;80.70;;;;;;5046098;28;20033;-72
2021/12/26 06:42:57;;;;;;;6.30;5.72;;;10.10;80.70;;;;;;4988880;28;20041;-72
2021/12/26 06:45:54;;;;;;;6.20;5.60;;;10.10;80.80;;;;;;5028181;28;20128;-72
2021/12/26 06:48:55;;;;;;;6.47;5.88;;;10.10;80.80;;;;;;4944960;28;20043;-72
2021/12/26 06:51:21;;;;;;;5.68;5.18;;;10.10;80.80;;;;;;5038247;28;20693;-73
2021/12/26 06:53:47;;;;;;;6.03;5.43;;;10.10;80.70;;;;;;5066456;28;20024;-73
2021/12/26 06:56:13;;;;;;;5.45;4.95;;;10.10;80.80;;;;;;5050812;28;20040;-73
2021/12/26 06:58:39;;;;;;;5.30;4.80;;;10.00;80.60;;;;;;5045526;28;20425;-74
2021/12/26 07:01:06;;;;;;;5.63;5.13;;;10.00;80.60;;;;;;5027803;28;20498;-73
2021/12/26 07:03:32;;;;;;;5.40;4.90;;;10.00;80.60;;;;;;5040840;28;20377;-73
2021/12/26 07:05:58;;;;;;;5.53;5.03;;;10.00;80.70;;;;;;5048048;28;20025;-73
2021/12/26 07:08:26;;;;;;;5.45;4.70;;;10.00;80.70;;;;;;5047829;28;20024;-74
2021/12/26 07:10:55;;;;;;;5.05;4.55;;;10.00;80.70;;;;;;5042236;28;20025;-73
2021/12/26 07:13:22;;;;;;;5.60;5.10;;;10.00;80.70;;;;;;5021478;28;20446;-75
2021/12/26 07:15:50;;;;;;;5.82;5.22;;;10.00;80.70;;;;;;5045125;28;20086;-73
2021/12/26 07:18:17;;;;;;;5.20;4.70;;;9.90;80.50;;;;;;5045636;28;20033;-73
2021/12/26 07:20:44;;;;;;;5.30;4.80;;;9.90;80.60;;;;;;5045047;28;20028;-73
2021/12/26 07:23:29;;;;;;;5.38;4.88;;;10.00;80.80;;;;;;5053982;28;20476;-74
2021/12/26 07:26:00;;;;;;;5.65;5.15;;;9.90;80.60;;;;;;5028252;28;20489;-74
2021/12/26 07:28:27;;;;;;;5.25;4.80;;;9.90;80.70;;;;;;5044506;28;20400;-74
2021/12/26 07:31:09;;;;;;;4.85;4.45;;;9.90;80.70;;;;;;5028298;28;20361;-73
2021/12/26 07:33:37;;;;;;;5.20;4.70;;;9.90;80.70;;;;;;5036981;28;20388;-72
2021/12/26 07:36:05;;;;;;;5.35;4.85;;;9.90;80.70;;;;;;5044389;28;20048;-72
2021/12/26 07:38:38;;;;;;;4.82;4.32;;;9.90;80.70;;;;;;5044008;28;20033;-72
2021/12/26 07:41:06;;;;;;;4.93;4.43;;;9.90;81.20;;;;;;5044907;28;20524;-73
2021/12/26 07:43:33;;;;;;;4.85;4.40;;;9.90;80.70;;;;;;5045679;28;20033;-72
2021/12/26 07:46:19;;;;;;;5.75;4.95;;;9.90;80.70;;;;;;5023639;28;20056;-72
2021/12/26 07:48:47;;;;;;;6.07;4.97;;;9.90;80.70;;;;;;5038757;28;20040;-75
2021/12/26 07:51:33;;;;;;;4.72;4.32;;;9.90;80.70;;;;;;5065282;28;20032;-74
2021/12/26 07:54:19;;;;;;;4.47;4.07;;;9.90;80.70;;;;;;5065305;28;20029;-74
2021/12/26 07:57:06;;;;;;;4.63;4.22;;;9.90;80.70;;;;;;5064231;28;20055;-74
2021/12/26 07:59:50;;;;;;;6.28;5.43;;;9.90;80.60;;;;;;5061529;28;20032;-72
2021/12/26 08:02:37;;;;;;;4.93;4.53;;;9.90;80.60;;;;;;5057623;28;20029;-72
2021/12/26 08:05:35;;;;;;;4.57;4.18;;;10.00;80.80;;;;;;5038982;28;20032;-72
2021/12/26 08:08:11;;;;;;;5.78;5.18;;;10.00;80.80;;;;;;5038846;28;20037;-73
2021/12/26 08:10:37;;;;;;;5.07;4.68;;;10.00;80.80;;;;;;5025681;28;20118;-72
2021/12/26 08:13:03;;;;;;;4.43;4.03;;;10.00;80.80;;;;;;5033396;28;20098;-71
2021/12/26 08:15:29;;;;;;;5.65;5.13;;;9.90;80.60;;;;;;5062476;28;20054;-72
2021/12/26 08:17:55;;;;;;;5.65;5.15;;;10.00;80.80;;;;;;5059069;28;20270;-72
2021/12/26 08:20:22;;;;;;;5.30;4.80;;;10.00;80.80;;;;;;5043503;28;20473;-72
2021/12/26 08:22:48;;;;;;;5.55;5.05;;;10.00;80.80;;;;;;5043186;28;20032;-72
2021/12/26 08:25:14;;;;;;;5.95;4.85;;;10.00;80.80;;;;;;5043964;28;20033;-72
2021/12/26 08:27:40;;;;;;;4.97;4.57;;;10.00;80.70;;;;;;5044767;28;20059;-72
2021/12/26 08:30:07;;;;;;;5.35;4.85;;;10.00;80.70;;;;;;5045111;28;20033;-72
2021/12/26 08:32:37;;;;;;;5.35;4.85;;;10.00;80.80;;;;;;5045458;28;20405;-72
2021/12/26 08:35:05;;;;;;;5.28;4.78;;;10.00;80.70;;;;;;5048681;28;20033;-72
2021/12/26 08:37:31;;;;;;;4.55;4.10;;;10.00;80.70;;;;;;5048403;28;20378;-72
2021/12/26 08:39:58;;;;;;;5.75;5.25;;;10.00;80.70;;;;;;5047908;28;20029;-72
2021/12/26 08:42:24;;;;;;;4.60;4.20;;;10.00;80.70;;;;;;5048329;28;20044;-72
2021/12/26 08:44:53;;;;;;;6.20;4.80;;;10.00;80.70;;;;;;5048024;28;20029;-72
2021/12/26 08:47:19;;;;;;;5.40;4.90;;;10.00;80.60;;;;;;5055442;28;20047;-72
2021/12/26 08:49:45;;;;;;;5.20;4.78;;;10.00;80.60;;;;;;5048746;28;20055;-72
2021/12/26 08:52:11;;;;;;;5.72;5.15;;;10.10;80.80;;;;;;5048259;28;20028;-72
2021/12/26 08:54:39;;;;;;;5.07;4.57;;;10.10;80.70;;;;;;5047842;28;20029;-73
2021/12/26 08:57:06;;;;;;;5.55;5.05;;;10.10;80.70;;;;;;5047995;28;20094;-72
2021/12/26 08:59:32;;;;;;;5.25;4.75;;;10.10;80.70;;;;;;5048272;28;20365;-73
2021/12/26 09:02:03;;;;;;;5.18;4.75;;;10.10;80.70;;;;;;5030523;28;20384;-72
2021/12/26 09:04:29;;;;;;;5.30;4.80;;;10.10;80.70;;;;;;5048155;28;20029;-72
2021/12/26 09:06:57;;;;;;;5.07;4.55;;;10.10;80.60;;;;;;5048074;28;20374;-73
2021/12/26 09:09:25;;;;;;;4.97;4.55;;;10.10;80.60;;;;;;5063940;28;20021;-72
2021/12/26 09:11:51;;;;;;;5.28;4.70;;;10.10;80.50;;;;;;5067831;28;20035;-73
2021/12/26 09:14:17;;;;;;;5.53;5.03;;;10.10;80.50;;;;;;5067282;28;20032;-73
2021/12/26 09:16:43;;;;;;;5.72;5.07;;;10.20;80.60;;;;;;5066331;28;20028;-72
2021/12/26 09:19:09;;;;;;;5.60;5.10;;;10.20;80.60;;;;;;5067207;28;20036;-73
2021/12/26 09:21:36;;;;;;;5.85;5.25;;;10.20;80.50;;;;;;5067969;28;20079;-72
2021/12/26 09:24:04;;;;;;;5.32;4.85;;;10.30;80.70;;;;;;5067327;28;20043;-72
2021/12/26 09:26:30;;;;;;;5.00;4.50;;;10.30;80.60;;;;;;5067782;28;20115;-73
2021/12/26 09:28:56;;;;;;;5.47;5.00;;;10.30;80.50;;;;;;5067107;28;20123;-72
2021/12/26 09:31:22;;;;;;;5.75;4.97;;;10.30;80.50;;;;;;5033273;28;20381;-72
2021/12/26 09:33:48;;;;;;;6.03;4.90;;;10.30;80.50;;;;;;5067411;28;20095;-73
2021/12/26 09:36:14;;;;;;;5.43;4.93;;;10.40;80.50;;;;;;5067787;28;20064;-73
2021/12/26 09:38:40;;;;;;;5.72;5.07;;;10.40;80.50;;;;;;5067254;28;20370;-72
2021/12/26 09:41:06;;;;;;;5.78;5.28;;;10.40;80.50;;;;;;5066613;28;20024;-73
2021/12/26 09:43:32;;;;;;;5.75;4.80;;;10.50;80.60;;;;;;5066986;28;20067;-72
2021/12/26 09:45:58;;;;;;;6.05;5.25;;;10.50;80.60;;;;;;5065945;28;20028;-72
2021/12/26 09:48:24;;;;;;;5.43;4.93;;;10.50;80.50;;;;;;5066554;28;20097;-73
2021/12/26 09:50:50;;;;;;;6.60;5.40;;;10.60;80.60;;;;;;5067139;28;20043;-72
2021/12/26 09:53:16;;;;;;;6.15;5.60;;;10.60;80.50;;;;;;5049180;28;20044;-72
2021/12/26 09:55:42;;;;;;;5.35;4.63;;;10.70;80.50;;;;;;5067179;28;20032;-72
2021/12/26 09:58:08;;;;;;;5.43;4.93;;;10.80;80.60;;;;;;5067120;28;20073;-72
2021/12/26 10:00:39;;;;;;;5.57;5.07;;;10.80;80.50;;;;;;5037473;28;20053;-73
2021/12/26 10:03:23;;;;;;;6.30;5.70;;;10.80;80.40;;;;;;5070804;28;20090;-74
2021/12/26 10:06:13;;;;;;;5.70;5.10;;;10.90;80.50;;;;;;5046829;28;20346;-72
2021/12/26 10:08:56;;;;;;;5.72;5.18;;;10.90;80.50;;;;;;5046718;28;20033;-73
2021/12/26 10:11:25;;;;;;;5.35;4.78;;;10.90;80.40;;;;;;5047532;28;20041;-72
2021/12/26 10:13:56;;;;;;;5.35;4.70;;;11.00;80.50;;;;;;5046920;28;20083;-73
2021/12/26 10:16:25;;;;;;;5.95;4.60;;;11.00;80.40;;;;;;5046780;28;20397;-73
2021/12/26 10:18:52;;;;;;;5.70;5.00;;;11.00;80.30;;;;;;5046181;28;20045;-72
2021/12/26 10:21:39;;;;;;;5.10;4.70;;;11.10;80.40;;;;;;5047088;28;20024;-72
2021/12/26 10:24:23;;;;;;;5.80;5.20;;;11.20;80.50;;;;;;5046509;28;20044;-75
2021/12/26 10:26:53;;;;;;;5.07;4.57;;;11.20;80.40;;;;;;5046963;28;20025;-72
2021/12/26 10:29:33;;;;;;;5.30;4.80;;;11.20;80.40;;;;;;5066377;28;20035;-72
2021/12/26 10:32:00;;;;;;;6.65;5.22;;;11.20;80.30;;;;;;5069009;28;20593;-72
2021/12/26 10:34:43;;;;;;;6.90;5.10;;;11.20;80.20;;;;;;5051079;28;20384;-73
2021/12/26 10:37:17;;;;;;;5.13;4.68;;;11.30;80.40;;;;;;5059478;28;20101;-72
2021/12/26 10:39:47;;;;;;;6.22;5.63;;;11.30;80.30;;;;;;5031449;28;20484;-73
2021/12/26 10:42:19;;;;;;;7.40;4.80;;;11.30;80.30;;;;;;5063022;28;20020;-73
2021/12/26 10:44:56;;;;;;;6.18;5.03;;;11.30;80.30;;;;;;5077542;28;20067;-73
2021/12/26 10:47:25;;;;;;;5.35;4.85;;;11.40;80.40;;;;;;5074748;28;20053;-72
2021/12/26 10:49:56;;;;;;;5.72;5.22;;;11.50;80.50;;;;;;5061162;28;20031;-73
2021/12/26 10:52:23;;;;;;;5.03;4.53;;;11.50;80.40;;;;;;5083551;28;20390;-72
2021/12/26 10:54:52;;;;;;;5.15;4.65;;;11.50;80.30;;;;;;5064653;28;20065;-73
2021/12/26 10:57:40;;;;;;;5.60;5.10;;;11.60;80.40;;;;;;5085747;28;20044;-73
2021/12/26 11:00:14;;;;;;;6.22;5.35;;;11.70;80.40;;;;;;5057059;28;20025;-73
2021/12/26 11:02:46;;;;;;;5.55;4.95;;;11.80;80.50;;;;;;5061877;28;20564;-73
2021/12/26 11:05:18;;;;;;;6.05;5.40;;;11.80;80.40;;;;;;5045852;28;20194;-72
2021/12/26 11:07:48;;;;;;;5.20;4.38;;;11.80;80.40;;;;;;5054079;28;20107;-73
2021/12/26 11:10:26;;;;;;;5.55;4.70;;;11.90;80.60;;;;;;5076708;28;20024;-72
2021/12/26 11:12:58;;;;;;;7.15;4.53;;;12.00;80.60;;;;;;5066904;28;20485;-73
2021/12/26 11:15:28;;;;;;;6.40;5.60;;;12.10;80.60;;;;;;5045972;28;20039;-72
2021/12/26 11:18:01;;;;;;;5.43;4.82;;;12.10;80.60;;;;;;5057263;28;20036;-72
2021/12/26 11:20:29;;;;;;;5.28;4.75;;;12.20;80.70;;;;;;5074553;28;20028;-73
2021/12/26 11:22:56;;;;;;;6.88;5.07;;;12.30;80.70;;;;;;5054823;28;20120;-73
2021/12/26 11:25:23;;;;;;;6.10;4.82;;;12.30;80.50;;;;;;5056953;28;20044;-72
2021/12/26 11:27:50;;;;;;;6.15;5.05;;;12.40;80.50;;;;;;5063191;28;20028;-73
2021/12/26 11:30:17;;;;;;;6.40;4.57;;;12.50;80.60;;;;;;5064277;28;20627;-73
2021/12/26 11:32:44;;;;;;;6.13;4.07;;;12.50;80.50;;;;;;5065924;28;20056;-73
2021/12/26 11:35:10;;;;;;;6.47;4.80;;;12.50;80.40;;;;;;5065439;28;20067;-72
2021/12/26 11:37:39;;;;;;;10.98;5.75;;;12.60;80.50;;;;;;5064404;28;20040;-73
2021/12/26 11:40:25;;;;;;;5.45;4.85;;;12.60;80.40;;;;;;5051602;28;20028;-73
2021/12/26 11:43:30;;;;;;;7.03;5.18;;;12.70;80.50;;;;;;5045609;28;20025;-73
2021/12/26 11:46:52;;;;;;;5.45;4.75;;;12.70;80.40;;;;;;5034611;28;20055;-73
2021/12/26 11:50:16;;;;;;;5.68;5.05;;;12.70;80.30;;;;;;5019585;28;20037;-73
2021/12/26 11:53:41;;;;;;;6.05;4.40;;;12.70;80.20;;;;;;5037731;28;20041;-73
2021/12/26 11:56:34;;;;;;;7.18;5.25;;;12.80;80.30;;;;;;5055008;28;20032;-73
2021/12/26 11:59:38;;;;;;;7.68;4.43;;;12.80;80.30;;;;;;5032547;28;20060;-73
2021/12/26 12:02:05;;;;;;;6.60;5.28;;;12.80;80.20;;;;;;5044172;28;20447;-73
2021/12/26 12:04:31;;;;;;;6.85;4.75;;;12.80;80.20;;;;;;5041025;28;20049;-73
2021/12/26 12:07:04;;;;;;;9.23;6.50;;;12.80;80.30;;;;;;5044162;28;20079;-74
2021/12/26 12:09:39;;;;;;;7.53;4.80;;;12.70;80.10;;;;;;5047931;28;20032;-74
2021/12/26 12:12:13;;;;;;;5.97;4.28;;;12.70;80.20;;;;;;5048716;28;20116;-73
2021/12/26 12:14:59;;;;;;;8.15;5.47;;;12.60;80.10;;;;;;5062176;28;20029;-73
2021/12/26 12:17:31;;;;;;;5.97;4.72;;;12.60;80.10;;;;;;5057718;28;20116;-73
2021/12/26 12:20:20;;;;;;;7.95;5.65;;;12.60;80.20;;;;;;5068002;28;20032;-73
2021/12/26 12:23:04;;;;;;;7.80;4.57;;;12.60;80.30;;;;;;5068611;28;20071;-72
2021/12/26 12:25:38;;;;;;;6.60;4.95;;;12.50;80.10;;;;;;5051179;28;20028;-73
2021/12/26 12:28:25;;;;;;;5.25;4.65;;;12.50;80.20;;;;;;5064472;28;20045;-73
2021/12/26 12:31:08;;;;;;;5.65;5.13;;;12.50;80.30;;;;;;5048871;28;20508;-72
2021/12/26 12:33:36;;;;;;;7.18;4.45;;;12.60;80.50;;;;;;5048074;28;20044;-72
2021/12/26 12:36:02;;;;;;;9.50;5.85;;;12.60;80.50;;;;;;5049141;28;20504;-72
2021/12/26 12:38:39;;;;;;;6.75;4.07;;;12.70;80.50;;;;;;5034592;28;20044;-73
2021/12/26 12:41:31;;;;;;;8.23;3.95;;;12.70;80.40;;;;;;5048919;28;20400;-72
2021/12/26 12:44:00;;;;;;;4.85;4.28;;;12.80;80.40;;;;;;5048682;28;20112;-72
2021/12/26 12:46:26;;;;;;;5.55;4.07;;;12.90;80.50;;;;;;5048650;28;20032;-72
2021/12/26 12:49:08;;;;;;;4.05;3.70;;;12.90;80.30;;;;;;5047620;28;20369;-72
2021/12/26 12:51:45;;;;;;;7.38;4.57;;;13.10;80.40;;;;;;5031521;28;20036;-72
2021/12/26 12:54:20;;;;;;;4.38;2.80;;;13.10;80.40;;;;;;5046168;28;20087;-73
2021/12/26 12:56:47;;;;;;;8.27;2.78;;;13.30;80.70;;;;;;5067943;28;20036;-73
2021/12/26 12:59:12;;;;;;;6.25;2.30;;;13.40;80.80;;;;;;5050195;28;20032;-73
2021/12/26 13:01:41;;;;;;;4.10;2.65;;;13.40;80.60;;;;;;5068510;28;20502;-73
2021/12/26 13:04:08;;;;;;;2.20;1.80;;;13.50;80.60;;;;;;5067859;28;20044;-72
2021/12/26 13:06:35;;;;;;;4.40;1.98;;;13.60;80.70;;;;;;5068438;28;20043;-73
2021/12/26 13:09:01;;;;;;;2.70;1.73;;;13.60;80.50;;;;;;5055536;28;20033;-73
2021/12/26 13:11:30;;;;;;;3.70;1.60;;;13.60;80.50;;;;;;5048369;28;20101;-72